createdAt,value
2023-04-15T00:00:13.064Z,109.00
2023-04-15T00:00:21.708Z,109.00
2023-04-15T00:01:22.655Z,109.00
2023-04-15T00:02:23.488Z,109.00
2023-04-15T00:03:24.110Z,109.00
2023-04-15T00:04:24.622Z,109.00
2023-04-15T00:05:25.235Z,109.00
2023-04-15T00:06:25.830Z,109.00
2023-04-15T00:07:26.497Z,109.00
2023-04-15T00:08:27.060Z,109.00
2023-04-15T00:09:27.622Z,109.00
2023-04-15T00:10:28.590Z,109.00
2023-04-15T00:10:37.256Z,109.00
2023-04-15T00:11:37.963Z,109.00
2023-04-15T00:12:38.493Z,109.00
2023-04-15T00:13:39.058Z,109.00
2023-04-15T00:14:39.725Z,109.00
2023-04-15T00:15:40.249Z,109.00
2023-04-15T00:16:41.873Z,109.00
2023-04-15T00:17:41.526Z,109.00
2023-04-15T00:18:42.125Z,109.00
2023-04-15T00:19:42.890Z,109.00
2023-04-15T00:20:43.550Z,109.00
2023-04-15T00:22:15.518Z,109.00
2023-04-15T00:23:47.382Z,109.00
2023-04-15T00:24:48.058Z,109.00
2023-04-15T00:26:18.736Z,109.00
2023-04-15T00:27:19.568Z,109.00
2023-04-15T00:28:52.571Z,109.00
2023-04-15T00:29:52.878Z,109.00
2023-04-15T00:30:53.551Z,109.00
2023-04-15T00:31:54.127Z,109.00
2023-04-15T00:32:54.993Z,109.00
2023-04-15T00:33:55.479Z,109.00
2023-04-15T00:34:56.082Z,109.00
2023-04-15T00:35:56.661Z,109.00
2023-04-15T00:36:57.173Z,109.00
2023-04-15T00:37:57.773Z,109.00
2023-04-15T00:38:58.529Z,109.00
2023-04-15T00:39:59.306Z,109.00
2023-04-15T00:40:07.952Z,109.00
2023-04-15T00:41:08.828Z,109.00
2023-04-15T00:42:09.429Z,109.00
2023-04-15T00:43:09.965Z,109.00
2023-04-15T00:44:10.503Z,109.00
2023-04-15T00:45:11.169Z,109.00
2023-04-15T00:46:11.762Z,109.00
2023-04-15T00:47:12.293Z,109.00
2023-04-15T00:48:12.794Z,109.00
2023-04-15T00:49:13.449Z,109.00
2023-04-15T00:50:14.138Z,109.00
2023-04-15T00:50:22.850Z,109.00
2023-04-15T00:51:23.349Z,109.00
2023-04-15T00:52:24.096Z,109.00
2023-04-15T00:53:25.775Z,109.00
2023-04-15T00:54:25.246Z,109.00
2023-04-15T00:55:25.821Z,109.00
2023-04-15T00:56:26.350Z,109.00
2023-04-15T00:57:27.008Z,109.00
2023-04-15T00:58:27.488Z,109.00
2023-04-15T00:59:27.797Z,109.00
2023-04-15T01:00:28.388Z,109.00
2023-04-15T01:01:28.958Z,109.00
2023-04-15T01:01:38.726Z,109.00
2023-04-15T01:02:39.640Z,109.00
2023-04-15T01:03:40.273Z,109.00
2023-04-15T01:04:40.590Z,109.00
2023-04-15T01:05:41.408Z,109.00
2023-04-15T01:06:42.055Z,109.00
2023-04-15T01:07:42.618Z,109.00
2023-04-15T01:08:43.534Z,109.00
2023-04-15T01:09:44.072Z,109.00
2023-04-15T01:10:44.822Z,109.00
2023-04-15T01:11:45.423Z,109.00
2023-04-15T01:11:54.113Z,109.00
2023-04-15T01:12:54.652Z,109.00
2023-04-15T01:13:55.192Z,109.00
2023-04-15T01:14:55.761Z,109.00
2023-04-15T01:15:56.482Z,109.00
2023-04-15T01:16:57.318Z,109.00
2023-04-15T01:17:57.959Z,109.00
2023-04-15T01:18:58.806Z,109.00
2023-04-15T01:19:59.159Z,109.00
2023-04-15T01:20:59.819Z,109.00
2023-04-15T01:22:00.458Z,109.00
2023-04-15T01:23:00.994Z,109.00
2023-04-15T01:23:10.123Z,109.00
2023-04-15T01:24:10.582Z,109.00
2023-04-15T01:25:10.929Z,109.00
2023-04-15T01:26:11.555Z,109.00
2023-04-15T01:27:12.132Z,109.00
2023-04-15T01:28:12.680Z,109.00
2023-04-15T01:29:13.310Z,109.00
2023-04-15T01:30:13.943Z,109.00
2023-04-15T01:31:14.576Z,109.00
2023-04-15T01:32:15.065Z,109.00
2023-04-15T01:33:15.616Z,109.00
2023-04-15T01:33:24.806Z,109.00
2023-04-15T01:34:24.657Z,109.00
2023-04-15T01:35:25.320Z,109.00
2023-04-15T01:36:25.804Z,109.00
2023-04-15T01:37:26.407Z,109.00
2023-04-15T01:38:26.945Z,109.00
2023-04-15T01:39:27.458Z,109.00
2023-04-15T01:40:28.268Z,109.00
2023-04-15T01:41:28.805Z,109.00
2023-04-15T01:42:29.444Z,109.00
2023-04-15T01:43:29.933Z,109.00
2023-04-15T01:44:30.487Z,109.00
2023-04-15T01:44:39.629Z,109.00
2023-04-15T01:45:40.192Z,109.00
2023-04-15T01:46:40.858Z,109.00
2023-04-15T01:47:41.408Z,109.00
2023-04-15T01:48:42.151Z,109.00
2023-04-15T01:49:42.864Z,109.00
2023-04-15T01:50:43.598Z,109.00
2023-04-15T01:51:44.252Z,109.00
2023-04-15T01:52:44.977Z,109.00
2023-04-15T01:53:45.520Z,109.00
2023-04-15T01:54:46.018Z,109.00
2023-04-15T01:54:55.706Z,109.00
2023-04-15T01:55:56.597Z,109.00
2023-04-15T01:56:57.253Z,109.00
2023-04-15T01:57:57.901Z,109.00
2023-04-15T01:58:58.855Z,109.00
2023-04-15T01:59:59.080Z,109.00
2023-04-15T02:00:59.723Z,109.00
2023-04-15T02:02:00.364Z,109.00
2023-04-15T02:03:01.020Z,109.00
2023-04-15T02:04:01.615Z,109.00
2023-04-15T02:05:02.093Z,109.00
2023-04-15T02:05:11.728Z,109.00
2023-04-15T02:06:12.300Z,109.00
2023-04-15T02:07:13.298Z,109.00
2023-04-15T02:08:13.625Z,109.00
2023-04-15T02:09:14.243Z,109.00
2023-04-15T02:10:14.901Z,109.00
2023-04-15T02:11:15.503Z,109.00
2023-04-15T02:12:16.093Z,109.00
2023-04-15T02:13:16.752Z,109.00
2023-04-15T02:14:17.280Z,109.00
2023-04-15T02:15:18.203Z,109.00
2023-04-15T02:15:26.901Z,109.00
2023-04-15T02:16:27.486Z,109.00
2023-04-15T02:17:28.238Z,109.00
2023-04-15T02:18:28.768Z,109.00
2023-04-15T02:19:29.303Z,109.00
2023-04-15T02:20:29.845Z,109.00
2023-04-15T02:21:30.440Z,109.00
2023-04-15T02:22:31.043Z,109.00
2023-04-15T02:23:31.610Z,109.00
2023-04-15T02:24:32.140Z,109.00
2023-04-15T02:25:32.619Z,109.00
2023-04-15T02:25:41.296Z,109.00
2023-04-15T02:26:41.796Z,109.00
2023-04-15T02:27:42.385Z,109.00
2023-04-15T02:28:42.957Z,109.00
2023-04-15T02:29:43.543Z,109.00
2023-04-15T02:30:44.075Z,109.00
2023-04-15T02:31:44.738Z,109.00
2023-04-15T02:32:45.728Z,109.00
2023-04-15T02:33:46.154Z,109.00
2023-04-15T02:34:46.894Z,109.00
2023-04-15T02:35:47.508Z,109.00
2023-04-15T02:36:48.081Z,109.00
2023-04-15T02:36:56.769Z,109.00
2023-04-15T02:37:57.307Z,109.00
2023-04-15T02:38:57.886Z,109.00
2023-04-15T02:39:58.379Z,109.00
2023-04-15T02:40:58.994Z,109.00
2023-04-15T02:41:59.660Z,109.00
2023-04-15T02:43:00.252Z,109.00
2023-04-15T02:44:01.154Z,109.00
2023-04-15T02:45:01.673Z,109.00
2023-04-15T02:46:02.238Z,109.00
2023-04-15T02:47:02.932Z,109.00
2023-04-15T02:47:11.632Z,109.00
2023-04-15T02:48:12.261Z,109.00
2023-04-15T02:49:12.964Z,109.00
2023-04-15T02:50:13.554Z,109.00
2023-04-15T02:51:14.168Z,109.00
2023-04-15T02:52:15.122Z,109.00
2023-04-15T02:53:15.726Z,109.00
2023-04-15T02:55:49.422Z,109.00
2023-04-15T02:56:49.442Z,109.00
2023-04-15T02:57:50.114Z,109.00
2023-04-15T02:58:50.864Z,109.00
2023-04-15T02:59:51.399Z,109.00
2023-04-15T03:00:51.978Z,109.00
2023-04-15T03:01:52.651Z,109.00
2023-04-15T03:02:53.333Z,109.00
2023-04-15T03:03:53.923Z,109.00
2023-04-15T03:04:54.501Z,109.00
2023-04-15T03:05:55.081Z,109.00
2023-04-15T03:06:03.758Z,109.00
2023-04-15T03:07:04.285Z,109.00
2023-04-15T03:08:05.098Z,109.00
2023-04-15T03:09:05.673Z,109.00
2023-04-15T03:10:06.261Z,109.00
2023-04-15T03:11:06.896Z,109.00
2023-04-15T03:12:07.463Z,109.00
2023-04-15T03:13:08.127Z,109.00
2023-04-15T03:14:08.759Z,109.00
2023-04-15T03:15:09.339Z,109.00
2023-04-15T03:16:10.068Z,109.00
2023-04-15T03:16:18.695Z,9.00
2023-04-15T03:17:19.311Z,9.00
2023-04-15T03:18:19.884Z,9.00
2023-04-15T03:19:20.591Z,9.00
2023-04-15T03:20:21.286Z,9.00
2023-04-15T03:21:21.775Z,9.00
2023-04-15T03:22:22.395Z,9.00
2023-04-15T03:23:23.016Z,9.00
2023-04-15T03:24:23.597Z,9.00
2023-04-15T03:25:24.193Z,9.00
2023-04-15T03:26:24.819Z,9.00
2023-04-15T03:27:25.377Z,9.00
2023-04-15T03:27:34.080Z,109.00
2023-04-15T03:28:34.912Z,109.00
2023-04-15T03:29:35.687Z,109.00
2023-04-15T03:30:36.341Z,109.00
2023-04-15T03:31:37.017Z,109.00
2023-04-15T03:32:37.607Z,109.00
2023-04-15T03:33:38.282Z,109.00
2023-04-15T03:34:38.853Z,109.00
2023-04-15T03:35:39.498Z,109.00
2023-04-15T03:36:40.146Z,109.00
2023-04-15T03:37:40.435Z,109.00
2023-04-15T03:38:41.095Z,109.00
2023-04-15T03:38:49.706Z,109.00
2023-04-15T03:39:51.531Z,109.00
2023-04-15T03:40:50.994Z,109.00
2023-04-15T03:41:51.556Z,109.00
2023-04-15T03:42:52.133Z,109.00
2023-04-15T03:43:52.817Z,109.00
2023-04-15T03:44:53.388Z,109.00
2023-04-15T03:45:54.381Z,109.00
2023-04-15T03:46:54.192Z,109.00
2023-04-15T03:47:54.828Z,109.00
2023-04-15T03:48:55.587Z,109.00
2023-04-15T03:49:56.194Z,109.00
2023-04-15T03:50:04.800Z,109.00
2023-04-15T03:51:05.086Z,109.00
2023-04-15T03:52:05.683Z,109.00
2023-04-15T03:53:06.244Z,109.00
2023-04-15T03:54:07.145Z,109.00
2023-04-15T03:55:07.844Z,109.00
2023-04-15T03:56:08.407Z,109.00
2023-04-15T03:57:08.992Z,109.00
2023-04-15T03:58:09.533Z,109.00
2023-04-15T03:59:10.226Z,109.00
2023-04-15T04:00:11.151Z,109.00
2023-04-15T04:00:20.846Z,109.00
2023-04-15T04:01:20.862Z,109.00
2023-04-15T04:02:21.596Z,109.00
2023-04-15T04:03:22.162Z,109.00
2023-04-15T04:04:22.839Z,109.00
2023-04-15T04:05:23.345Z,109.00
2023-04-15T04:06:24.059Z,109.00
2023-04-15T04:07:24.690Z,109.00
2023-04-15T04:08:25.284Z,109.00
2023-04-15T04:09:25.946Z,109.00
2023-04-15T04:10:26.582Z,109.00
2023-04-15T04:11:27.601Z,109.00
2023-04-15T04:11:39.190Z,109.00
2023-04-15T04:12:39.747Z,109.00
2023-04-15T04:13:40.347Z,109.00
2023-04-15T04:14:41.009Z,109.00
2023-04-15T04:15:41.510Z,109.00
2023-04-15T04:16:42.503Z,109.00
2023-04-15T04:17:43.019Z,109.00
2023-04-15T04:18:43.577Z,109.00
2023-04-15T04:19:44.254Z,109.00
2023-04-15T04:20:45.154Z,109.00
2023-04-15T04:21:45.722Z,109.00
2023-04-15T04:22:46.268Z,109.00
2023-04-15T04:22:54.907Z,109.00
2023-04-15T04:23:55.727Z,109.00
2023-04-15T04:25:21.952Z,109.00
2023-04-15T04:25:56.489Z,109.00
2023-04-15T04:26:57.090Z,109.00
2023-04-15T04:27:57.670Z,109.00
2023-04-15T04:28:58.436Z,109.00
2023-04-15T04:29:59.069Z,109.00
2023-04-15T04:30:59.746Z,109.00
2023-04-15T04:32:00.391Z,109.00
2023-04-15T04:33:00.962Z,109.00
2023-04-15T04:34:01.553Z,109.00
2023-04-15T04:34:10.184Z,109.00
2023-04-15T04:35:10.766Z,109.00
2023-04-15T04:36:11.352Z,109.00
2023-04-15T04:37:11.984Z,109.00
2023-04-15T04:38:12.548Z,109.00
2023-04-15T04:39:13.118Z,109.00
2023-04-15T04:40:13.713Z,109.00
2023-04-15T04:41:14.280Z,109.00
2023-04-15T04:42:14.940Z,109.00
2023-04-15T04:43:15.592Z,109.00
2023-04-15T04:44:16.194Z,109.00
2023-04-15T04:44:24.876Z,109.00
2023-04-15T04:45:24.872Z,109.00
2023-04-15T04:46:25.124Z,109.00
2023-04-15T04:47:25.789Z,109.00
2023-04-15T04:48:26.353Z,109.00
2023-04-15T04:49:26.956Z,109.00
2023-04-15T04:50:27.501Z,109.00
2023-04-15T04:51:28.086Z,109.00
2023-04-15T04:52:28.748Z,109.00
2023-04-15T04:53:29.297Z,109.00
2023-04-15T04:54:29.869Z,109.00
2023-04-15T04:55:29.917Z,109.00
2023-04-15T04:55:38.584Z,109.00
2023-04-15T04:56:39.316Z,109.00
2023-04-15T04:57:39.979Z,109.00
2023-04-15T04:58:40.758Z,109.00
2023-04-15T04:59:41.371Z,109.00
2023-04-15T05:00:42.032Z,109.00
2023-04-15T05:01:42.957Z,109.00
2023-04-15T05:02:43.564Z,109.00
2023-04-15T05:03:44.100Z,109.00
2023-04-15T05:04:44.686Z,109.00
2023-04-15T05:05:45.405Z,109.00
2023-04-15T05:06:46.096Z,109.00
2023-04-15T05:06:57.692Z,109.00
2023-04-15T05:07:57.933Z,109.00
2023-04-15T05:08:58.834Z,109.00
2023-04-15T05:09:59.545Z,109.00
2023-04-15T05:11:00.214Z,109.00
2023-04-15T05:12:00.808Z,109.00
2023-04-15T05:13:01.393Z,109.00
2023-04-15T05:14:02.054Z,109.00
2023-04-15T05:15:02.554Z,109.00
2023-04-15T05:16:04.315Z,109.00
2023-04-15T05:17:03.894Z,109.00
2023-04-15T05:18:04.591Z,109.00
2023-04-15T05:18:13.207Z,109.00
2023-04-15T05:19:13.360Z,109.00
2023-04-15T05:20:14.013Z,109.00
2023-04-15T05:21:14.827Z,109.00
2023-04-15T05:22:15.560Z,109.00
2023-04-15T05:23:16.270Z,109.00
2023-04-15T05:25:02.791Z,109.00
2023-04-15T05:26:03.456Z,109.00
2023-04-15T05:27:04.276Z,109.00
2023-04-15T05:28:04.961Z,109.00
2023-04-15T05:29:05.502Z,109.00
2023-04-15T05:30:06.087Z,109.00
2023-04-15T05:31:06.682Z,109.00
2023-04-15T05:32:07.552Z,109.00
2023-04-15T05:33:08.186Z,109.00
2023-04-15T05:34:08.739Z,109.00
2023-04-15T05:35:09.298Z,109.00
2023-04-15T05:36:09.942Z,109.00
2023-04-15T05:36:20.564Z,109.00
2023-04-15T05:37:21.429Z,109.00
2023-04-15T05:38:22.001Z,109.00
2023-04-15T05:39:22.647Z,109.00
2023-04-15T05:40:23.241Z,109.00
2023-04-15T05:41:23.896Z,109.00
2023-04-15T05:42:24.545Z,109.00
2023-04-15T05:43:25.239Z,109.00
2023-04-15T05:44:25.807Z,109.00
2023-04-15T05:45:26.388Z,109.00
2023-04-15T05:46:27.091Z,109.00
2023-04-15T05:46:35.767Z,109.00
2023-04-15T05:47:36.660Z,109.00
2023-04-15T05:48:37.247Z,109.00
2023-04-15T05:49:37.798Z,109.00
2023-04-15T05:50:38.399Z,109.00
2023-04-15T05:51:38.981Z,109.00
2023-04-15T05:52:39.634Z,109.00
2023-04-15T05:53:40.129Z,109.00
2023-04-15T05:54:40.756Z,109.00
2023-04-15T05:55:47.149Z,109.00
2023-04-15T05:56:41.588Z,109.00
2023-04-15T05:56:50.387Z,109.00
2023-04-15T05:57:50.523Z,109.00
2023-04-15T05:58:53.359Z,109.00
2023-04-15T05:59:52.168Z,109.00
2023-04-15T06:00:53.055Z,109.00
2023-04-15T06:01:53.677Z,109.00
2023-04-15T06:02:54.410Z,109.00
2023-04-15T06:03:55.449Z,109.00
2023-04-15T06:04:55.869Z,109.00
2023-04-15T06:05:56.801Z,109.00
2023-04-15T06:06:57.453Z,109.00
2023-04-15T06:07:58.152Z,109.00
2023-04-15T06:08:06.766Z,109.00
2023-04-15T06:09:07.354Z,109.00
2023-04-15T06:10:08.399Z,109.00
2023-04-15T06:11:08.587Z,109.00
2023-04-15T06:12:09.370Z,109.00
2023-04-15T06:13:09.986Z,109.00
2023-04-15T06:14:10.089Z,109.00
2023-04-15T06:15:10.951Z,109.00
2023-04-15T06:16:11.701Z,109.00
2023-04-15T06:17:11.622Z,109.00
2023-04-15T06:18:11.815Z,109.00
2023-04-15T06:19:12.639Z,109.00
2023-04-15T06:20:13.164Z,109.00
2023-04-15T06:20:22.213Z,109.00
2023-04-15T06:21:22.872Z,109.00
2023-04-15T06:22:23.621Z,109.00
2023-04-15T06:23:25.283Z,109.00
2023-04-15T06:24:24.953Z,109.00
2023-04-15T06:25:25.633Z,109.00
2023-04-15T06:26:26.405Z,109.00
2023-04-15T06:27:27.098Z,109.00
2023-04-15T06:28:27.740Z,109.00
2023-04-15T06:29:28.343Z,109.00
2023-04-15T06:30:28.960Z,109.00
2023-04-15T06:31:29.674Z,109.00
2023-04-15T06:31:38.828Z,109.00
2023-04-15T06:32:39.661Z,109.00
2023-04-15T06:33:40.380Z,109.00
2023-04-15T06:34:41.157Z,109.00
2023-04-15T06:35:42.071Z,109.00
2023-04-15T06:36:42.669Z,109.00
2023-04-15T06:37:43.247Z,109.00
2023-04-15T06:38:43.852Z,109.00
2023-04-15T06:39:44.431Z,109.00
2023-04-15T06:40:45.015Z,109.00
2023-04-15T06:41:45.624Z,109.00
2023-04-15T06:41:54.286Z,109.00
2023-04-15T06:42:54.791Z,109.00
2023-04-15T06:43:55.372Z,109.00
2023-04-15T06:44:55.994Z,106.78
2023-04-15T06:45:56.587Z,106.47
2023-04-15T06:46:57.135Z,101.30
2023-04-15T06:47:57.888Z,100.97
2023-04-15T06:48:58.510Z,98.66
2023-04-15T06:49:59.061Z,93.77
2023-04-15T06:50:59.669Z,88.93
2023-04-15T06:52:00.313Z,90.53
2023-04-15T06:52:09.071Z,87.07
2023-04-15T06:53:09.874Z,89.04
2023-04-15T06:54:10.488Z,90.69
2023-04-15T06:55:10.892Z,89.34
2023-04-15T06:56:11.507Z,86.92
2023-04-15T06:57:12.091Z,84.17
2023-04-15T06:58:12.862Z,83.42
2023-04-15T06:59:13.432Z,81.56
2023-04-15T07:00:13.987Z,78.20
2023-04-15T07:01:15.633Z,76.71
2023-04-15T07:02:15.191Z,79.06
2023-04-15T07:02:30.947Z,74.39
2023-04-15T07:03:32.759Z,75.70
2023-04-15T07:04:31.984Z,72.80
2023-04-15T07:05:32.498Z,70.86
2023-04-15T07:06:33.132Z,76.23
2023-04-15T07:07:33.758Z,71.21
2023-04-15T07:08:34.386Z,70.99
2023-04-15T07:09:34.929Z,70.48
2023-04-15T07:10:35.450Z,69.83
2023-04-15T07:11:36.092Z,69.92
2023-04-15T07:12:36.699Z,71.49
2023-04-15T07:13:37.098Z,72.21
2023-04-15T07:13:46.748Z,68.53
2023-04-15T07:14:47.635Z,67.15
2023-04-15T07:15:48.254Z,63.56
2023-04-15T07:16:48.913Z,66.04
2023-04-15T07:17:49.571Z,61.42
2023-04-15T07:18:50.101Z,62.42
2023-04-15T07:19:50.524Z,61.59
2023-04-15T07:20:51.152Z,62.00
2023-04-15T07:21:51.785Z,61.28
2023-04-15T07:22:52.350Z,58.30
2023-04-15T07:23:52.977Z,59.06
2023-04-15T07:24:53.723Z,60.69
2023-04-15T07:25:53.740Z,61.72
2023-04-15T07:26:03.402Z,60.79
2023-04-15T07:27:03.997Z,59.91
2023-04-15T07:28:04.596Z,60.70
2023-04-15T07:29:05.138Z,60.03
2023-04-15T07:30:05.850Z,62.22
2023-04-15T07:31:06.527Z,63.92
2023-04-15T07:32:07.168Z,65.92
2023-04-15T07:33:07.787Z,66.11
2023-04-15T07:34:08.411Z,65.66
2023-04-15T07:35:08.950Z,69.99
2023-04-15T07:36:09.743Z,71.16
2023-04-15T07:37:10.277Z,70.34
2023-04-15T07:37:20.390Z,67.01
2023-04-15T07:38:20.922Z,67.24
2023-04-15T07:39:21.496Z,63.07
2023-04-15T07:40:22.118Z,64.93
2023-04-15T07:41:22.724Z,64.52
2023-04-15T07:42:23.312Z,67.88
2023-04-15T07:43:23.950Z,71.12
2023-04-15T07:44:24.568Z,67.64
2023-04-15T07:45:25.525Z,69.19
2023-04-15T07:46:26.486Z,69.25
2023-04-15T07:47:27.152Z,68.06
2023-04-15T07:48:27.711Z,67.53
2023-04-15T07:48:37.624Z,67.65
2023-04-15T07:49:37.972Z,67.58
2023-04-15T07:50:38.722Z,67.71
2023-04-15T07:51:38.964Z,70.96
2023-04-15T07:52:39.656Z,69.22
2023-04-15T07:53:40.208Z,69.90
2023-04-15T07:55:58.212Z,77.45
2023-04-15T07:56:58.794Z,77.92
2023-04-15T07:57:59.429Z,84.50
2023-04-15T07:59:00.372Z,95.18
2023-04-15T08:00:00.610Z,102.31
2023-04-15T08:01:01.222Z,100.54
2023-04-15T08:02:02.167Z,100.63
2023-04-15T08:03:03.001Z,105.05
2023-04-15T08:04:03.409Z,103.04
2023-04-15T08:05:03.409Z,104.54
2023-04-15T08:06:03.955Z,104.71
2023-04-15T08:07:04.073Z,106.61
2023-04-15T08:07:13.495Z,106.94
2023-04-15T08:08:14.510Z,106.95
2023-04-15T08:09:15.161Z,107.53
2023-04-15T08:10:22.340Z,105.96
2023-04-15T08:11:15.990Z,104.31
2023-04-15T08:12:16.824Z,102.05
2023-04-15T08:13:17.572Z,103.77
2023-04-15T08:14:17.531Z,101.46
2023-04-15T08:15:18.457Z,102.27
2023-04-15T08:16:19.359Z,102.02
2023-04-15T08:17:20.223Z,101.61
2023-04-15T08:18:21.087Z,99.33
2023-04-15T08:18:30.931Z,102.16
2023-04-15T08:19:31.742Z,102.43
2023-04-15T08:20:32.705Z,102.00
2023-04-15T08:21:33.204Z,100.10
2023-04-15T08:22:34.112Z,97.61
2023-04-15T08:23:34.985Z,95.51
2023-04-15T08:24:35.958Z,96.24
2023-04-15T08:25:36.826Z,96.28
2023-04-15T08:26:37.512Z,94.20
2023-04-15T08:27:38.227Z,94.85
2023-04-15T08:28:38.873Z,94.81
2023-04-15T08:29:39.710Z,95.04
2023-04-15T08:29:48.760Z,96.78
2023-04-15T08:30:48.393Z,97.38
2023-04-15T08:31:49.062Z,95.97
2023-04-15T08:32:49.686Z,97.04
2023-04-15T08:33:50.269Z,98.26
2023-04-15T08:34:50.799Z,99.47
2023-04-15T08:35:51.584Z,99.07
2023-04-15T08:36:52.203Z,98.75
2023-04-15T08:37:52.837Z,98.84
2023-04-15T08:38:53.681Z,101.02
2023-04-15T08:39:54.549Z,101.11
2023-04-15T08:40:55.148Z,101.53
2023-04-15T08:41:03.767Z,100.94
2023-04-15T08:42:04.386Z,100.99
2023-04-15T08:43:04.950Z,100.50
2023-04-15T08:44:05.990Z,103.24
2023-04-15T08:45:06.559Z,103.53
2023-04-15T08:46:07.218Z,102.99
2023-04-15T08:47:07.890Z,102.98
2023-04-15T08:48:08.384Z,102.20
2023-04-15T08:49:09.522Z,103.67
2023-04-15T08:50:09.145Z,104.36
2023-04-15T08:51:09.725Z,103.57
2023-04-15T08:51:18.969Z,103.77
2023-04-15T08:52:19.431Z,103.91
2023-04-15T08:53:19.983Z,103.30
2023-04-15T08:54:20.028Z,103.27
2023-04-15T08:55:20.628Z,103.90
2023-04-15T08:56:21.202Z,106.31
2023-04-15T08:57:21.783Z,106.59
2023-04-15T08:58:22.525Z,109.00
2023-04-15T08:59:23.160Z,109.00
2023-04-15T09:00:23.898Z,109.00
2023-04-15T09:01:24.681Z,109.00
2023-04-15T09:02:25.288Z,109.00
2023-04-15T09:02:33.974Z,109.00
2023-04-15T09:03:34.170Z,109.00
2023-04-15T09:04:35.027Z,109.00
2023-04-15T09:05:35.618Z,109.00
2023-04-15T09:06:36.245Z,109.00
2023-04-15T09:07:36.888Z,109.00
2023-04-15T09:08:37.616Z,109.00
2023-04-15T09:09:38.261Z,109.00
2023-04-15T09:10:38.353Z,109.00
2023-04-15T09:11:39.098Z,109.00
2023-04-15T09:12:39.681Z,109.00
2023-04-15T09:12:48.368Z,109.00
2023-04-15T09:13:48.407Z,109.00
2023-04-15T09:14:49.092Z,109.00
2023-04-15T09:15:49.780Z,109.00
2023-04-15T09:16:50.635Z,109.00
2023-04-15T09:17:51.229Z,109.00
2023-04-15T09:18:51.882Z,109.00
2023-04-15T09:19:52.519Z,109.00
2023-04-15T09:20:53.166Z,108.63
2023-04-15T09:21:55.514Z,105.93
2023-04-15T09:22:54.690Z,103.48
2023-04-15T09:23:55.349Z,101.74
2023-04-15T09:24:04.224Z,103.37
2023-04-15T09:25:05.033Z,103.49
2023-04-15T09:26:05.754Z,102.28
2023-04-15T09:27:05.817Z,99.90
2023-04-15T09:28:05.896Z,101.15
2023-04-15T09:29:06.596Z,97.29
2023-04-15T09:30:07.241Z,95.43
2023-04-15T09:31:07.969Z,95.84
2023-04-15T09:32:08.602Z,101.21
2023-04-15T09:33:09.230Z,97.08
2023-04-15T09:34:09.826Z,93.80
2023-04-15T09:35:10.485Z,92.08
2023-04-15T09:35:21.658Z,91.25
2023-04-15T09:36:21.242Z,90.65
2023-04-15T09:37:31.966Z,90.86
2023-04-15T09:38:22.561Z,90.95
2023-04-15T09:39:23.216Z,84.81
2023-04-15T09:40:23.823Z,82.71
2023-04-15T09:41:24.446Z,83.86
2023-04-15T09:42:25.108Z,85.69
2023-04-15T09:43:25.169Z,81.04
2023-04-15T09:44:25.791Z,81.10
2023-04-15T09:45:29.378Z,81.26
2023-04-15T09:46:26.954Z,79.08
2023-04-15T09:46:36.755Z,77.92
2023-04-15T09:47:37.368Z,77.77
2023-04-15T09:48:37.974Z,81.22
2023-04-15T09:49:38.716Z,83.06
2023-04-15T09:50:39.711Z,77.69
2023-04-15T09:51:39.867Z,80.73
2023-04-15T09:52:40.571Z,81.75
2023-04-15T09:53:41.164Z,79.83
2023-04-15T09:54:41.849Z,80.12
2023-04-15T09:55:42.503Z,76.36
2023-04-15T09:56:43.120Z,76.37
2023-04-15T09:57:43.901Z,81.14
2023-04-15T09:57:52.528Z,79.17
2023-04-15T09:58:53.048Z,78.32
2023-04-15T09:59:53.785Z,74.48
2023-04-15T10:00:53.832Z,73.76
2023-04-15T10:01:54.536Z,72.58
2023-04-15T10:02:55.322Z,73.60
2023-04-15T10:03:56.071Z,75.94
2023-04-15T10:04:56.767Z,70.72
2023-04-15T10:05:57.663Z,77.67
2023-04-15T10:06:58.371Z,74.94
2023-04-15T10:07:58.995Z,75.00
2023-04-15T10:08:59.566Z,76.89
2023-04-15T10:09:08.211Z,79.53
2023-04-15T10:10:09.044Z,79.78
2023-04-15T10:11:09.776Z,78.02
2023-04-15T10:12:10.356Z,74.34
2023-04-15T10:13:10.982Z,77.51
2023-04-15T10:14:11.640Z,74.02
2023-04-15T10:15:12.303Z,77.82
2023-04-15T10:16:13.061Z,80.46
2023-04-15T10:17:13.863Z,79.18
2023-04-15T10:18:14.536Z,78.10
2023-04-15T10:19:15.239Z,78.11
2023-04-15T10:19:23.927Z,78.60
2023-04-15T10:20:24.598Z,78.60
2023-04-15T10:21:25.401Z,81.23
2023-04-15T10:22:26.362Z,77.58
2023-04-15T10:23:27.037Z,80.15
2023-04-15T10:24:27.790Z,81.23
2023-04-15T10:25:28.585Z,76.28
2023-04-15T10:26:29.217Z,73.67
2023-04-15T10:27:29.526Z,70.58
2023-04-15T10:28:30.222Z,69.55
2023-04-15T10:29:30.890Z,71.75
2023-04-15T10:30:31.674Z,77.52
2023-04-15T10:30:40.323Z,73.88
2023-04-15T10:31:41.089Z,74.00
2023-04-15T10:33:42.449Z,77.25
2023-04-15T10:34:43.135Z,76.64
2023-04-15T10:35:43.821Z,77.65
2023-04-15T10:36:44.521Z,76.98
2023-04-15T10:37:45.327Z,78.11
2023-04-15T10:38:47.222Z,75.86
2023-04-15T10:39:46.998Z,72.54
2023-04-15T10:40:47.806Z,71.34
2023-04-15T10:41:48.563Z,71.24
2023-04-15T10:41:57.372Z,74.49
2023-04-15T10:42:57.349Z,73.45
2023-04-15T10:43:58.001Z,75.25
2023-04-15T10:44:59.748Z,71.31
2023-04-15T10:45:59.392Z,71.37
2023-04-15T10:47:00.188Z,69.53
2023-04-15T10:48:03.299Z,67.38
2023-04-15T10:49:01.609Z,67.17
2023-04-15T10:50:01.993Z,62.37
2023-04-15T10:51:02.634Z,62.69
2023-04-15T10:52:03.430Z,61.05
2023-04-15T10:53:04.093Z,58.46
2023-04-15T10:53:12.745Z,58.98
2023-04-15T10:54:13.384Z,59.25
2023-04-15T10:55:14.067Z,61.47
2023-04-15T10:56:14.824Z,58.03
2023-04-15T10:57:15.505Z,57.77
2023-04-15T10:58:16.207Z,58.03
2023-04-15T10:59:16.924Z,59.37
2023-04-15T11:00:17.565Z,59.63
2023-04-15T11:01:18.327Z,59.18
2023-04-15T11:02:19.243Z,63.20
2023-04-15T11:03:20.118Z,62.30
2023-04-15T11:04:20.861Z,62.71
2023-04-15T11:04:29.546Z,60.56
2023-04-15T11:05:30.026Z,61.63
2023-04-15T11:06:30.858Z,62.43
2023-04-15T11:07:31.543Z,66.96
2023-04-15T11:08:32.232Z,66.03
2023-04-15T11:09:33.021Z,64.35
2023-04-15T11:10:33.762Z,62.70
2023-04-15T11:11:34.552Z,63.93
2023-04-15T11:12:34.779Z,64.40
2023-04-15T11:13:35.602Z,64.15
2023-04-15T11:14:36.261Z,65.23
2023-04-15T11:15:36.980Z,66.72
2023-04-15T11:15:45.598Z,67.09
2023-04-15T11:16:46.381Z,66.75
2023-04-15T11:17:47.078Z,67.40
2023-04-15T11:18:47.662Z,68.25
2023-04-15T11:19:48.335Z,68.30
2023-04-15T11:20:48.985Z,69.25
2023-04-15T11:21:49.703Z,70.25
2023-04-15T11:22:50.377Z,71.29
2023-04-15T11:23:50.930Z,70.71
2023-04-15T11:24:51.534Z,69.89
2023-04-15T11:25:52.256Z,70.92
2023-04-15T11:26:52.976Z,68.35
2023-04-15T11:27:01.624Z,70.90
2023-04-15T11:28:02.696Z,71.26
2023-04-15T11:29:03.611Z,74.44
2023-04-15T11:30:04.044Z,74.16
2023-04-15T11:31:04.846Z,75.21
2023-04-15T11:32:05.634Z,76.74
2023-04-15T11:33:06.273Z,75.56
2023-04-15T11:34:07.025Z,75.16
2023-04-15T11:35:07.593Z,76.58
2023-04-15T11:36:08.197Z,80.72
2023-04-15T11:37:08.936Z,81.97
2023-04-15T11:38:09.611Z,84.47
2023-04-15T11:38:18.243Z,80.59
2023-04-15T11:39:18.495Z,79.97
2023-04-15T11:40:19.209Z,79.51
2023-04-15T11:41:19.921Z,79.79
2023-04-15T11:42:20.633Z,77.38
2023-04-15T11:43:21.325Z,77.86
2023-04-15T11:44:21.995Z,82.00
2023-04-15T11:45:22.677Z,82.20
2023-04-15T11:46:23.438Z,77.03
2023-04-15T11:47:23.645Z,77.38
2023-04-15T11:48:24.476Z,80.49
2023-04-15T11:49:25.111Z,79.30
2023-04-15T11:49:33.730Z,79.51
2023-04-15T11:50:34.261Z,79.32
2023-04-15T11:51:34.941Z,80.31
2023-04-15T11:52:35.675Z,82.15
2023-04-15T11:53:36.259Z,82.78
2023-04-15T11:54:36.884Z,84.76
2023-04-15T11:55:37.679Z,85.78
2023-04-15T11:56:38.330Z,85.73
2023-04-15T11:57:39.026Z,87.53
2023-04-15T11:58:39.687Z,89.87